createdAt,value
2019-05-15T00:01:08.846Z,9.17
2019-05-15T00:03:40.365Z,9.11
2019-05-15T00:06:11.558Z,8.97
2019-05-15T00:08:42.938Z,8.97
2019-05-15T00:11:14.628Z,8.97
2019-05-15T00:13:48.372Z,8.98
2019-05-15T00:16:19.423Z,9.01
2019-05-15T00:18:51.174Z,9.02
2019-05-15T00:21:23.031Z,9.02
2019-05-15T00:23:54.385Z,8.95
2019-05-15T00:26:25.771Z,8.98
2019-05-15T00:29:09.478Z,8.96
2019-05-15T00:31:30.233Z,9.00
2019-05-15T00:34:01.500Z,8.85
2019-05-15T00:36:34.726Z,8.84
2019-05-15T00:39:08.447Z,8.77
2019-05-15T00:41:50.327Z,8.66
2019-05-15T00:44:13.280Z,8.68
2019-05-15T00:46:44.921Z,8.73
2019-05-15T00:49:14.096Z,8.70
2019-05-15T00:51:48.476Z,8.61
2019-05-15T00:54:19.732Z,8.57
2019-05-15T00:56:51.446Z,8.61
2019-05-15T00:59:26.719Z,8.60
2019-05-15T01:01:56.165Z,8.54
2019-05-15T01:04:28.813Z,8.60
2019-05-15T01:07:00.349Z,8.61
2019-05-15T01:09:33.372Z,8.56
2019-05-15T01:12:05.174Z,8.58
2019-05-15T01:14:38.534Z,8.66
2019-05-15T01:17:10.209Z,8.55
2019-05-15T01:19:42.004Z,8.54
2019-05-15T01:22:13.849Z,8.63
2019-05-15T01:24:45.605Z,8.69
2019-05-15T01:27:18.416Z,8.67
2019-05-15T01:29:50.145Z,8.68
2019-05-15T01:32:21.853Z,8.69
2019-05-15T01:34:53.419Z,8.66
2019-05-15T01:37:25.170Z,8.71
2019-05-15T01:39:58.150Z,8.78
2019-05-15T01:42:29.971Z,8.81
2019-05-15T01:45:01.596Z,8.78
2019-05-15T01:47:33.155Z,8.80
2019-05-15T01:50:04.462Z,8.86
2019-05-15T01:52:38.677Z,8.91
2019-05-15T01:55:09.847Z,8.91
2019-05-15T01:57:41.430Z,8.89
2019-05-15T02:00:13.054Z,8.97
2019-05-15T02:02:44.590Z,8.93
2019-05-15T02:05:18.695Z,8.86
2019-05-15T02:07:49.624Z,8.77
2019-05-15T02:10:21.151Z,8.81
2019-05-15T02:12:52.538Z,8.80
2019-05-15T02:15:24.146Z,8.83
2019-05-15T02:17:55.385Z,8.79
2019-05-15T02:20:29.049Z,8.86
2019-05-15T02:23:00.350Z,8.89
2019-05-15T02:25:32.222Z,8.92
2019-05-15T02:28:04.198Z,8.98
2019-05-15T02:30:39.650Z,8.98
2019-05-15T02:33:10.789Z,9.03
2019-05-15T02:35:42.169Z,9.12
2019-05-15T02:38:15.530Z,9.16
2019-05-15T02:40:49.355Z,9.16
2019-05-15T02:43:20.190Z,9.20
2019-05-15T02:45:51.647Z,9.19
2019-05-15T02:48:22.933Z,9.22
2019-05-15T02:50:54.631Z,9.17
2019-05-15T02:53:29.610Z,9.14
2019-05-15T02:56:00.304Z,9.17
2019-05-15T02:58:31.966Z,9.28
2019-05-15T03:01:03.596Z,9.24
2019-05-15T03:03:34.984Z,9.24
2019-05-15T03:06:09.654Z,9.32
2019-05-15T03:08:40.228Z,9.29
2019-05-15T03:11:12.024Z,9.27
2019-05-15T03:13:43.681Z,9.20
2019-05-15T03:16:15.474Z,9.15
2019-05-15T03:18:50.185Z,9.10
2019-05-15T03:21:19.891Z,9.14
2019-05-15T03:23:51.491Z,9.11
2019-05-15T03:26:23.060Z,8.94
2019-05-15T03:28:54.291Z,8.91
2019-05-15T03:31:43.549Z,8.90
2019-05-15T03:34:03.084Z,8.84
2019-05-15T03:36:32.412Z,8.88
2019-05-15T03:39:05.064Z,8.92
2019-05-15T03:41:39.289Z,8.99
2019-05-15T03:44:09.838Z,9.04
2019-05-15T03:46:41.359Z,8.87
2019-05-15T03:49:12.936Z,8.89
2019-05-15T03:51:45.850Z,8.89
2019-05-15T03:54:18.973Z,8.79
2019-05-15T03:56:50.779Z,8.84
2019-05-15T03:59:23.258Z,8.88
2019-05-15T04:01:54.813Z,9.00
2019-05-15T04:04:29.468Z,9.05
2019-05-15T04:06:59.748Z,9.09
2019-05-15T04:09:31.124Z,9.13
2019-05-15T04:12:02.265Z,9.06
2019-05-15T04:14:33.830Z,9.10
2019-05-15T04:17:08.865Z,9.14
2019-05-15T04:19:39.397Z,9.15
2019-05-15T04:22:10.965Z,9.03
2019-05-15T04:24:43.278Z,9.05
2019-05-15T04:27:14.932Z,9.00
2019-05-15T04:29:49.171Z,9.05
2019-05-15T04:32:20.163Z,9.14
2019-05-15T04:34:51.741Z,9.28
2019-05-15T04:37:23.338Z,9.39
2019-05-15T04:39:55.943Z,9.40
2019-05-15T04:42:29.880Z,9.39
2019-05-15T04:45:00.246Z,9.31
2019-05-15T04:47:32.584Z,9.37
2019-05-15T04:50:03.678Z,9.37
2019-05-15T04:52:34.994Z,9.51
2019-05-15T04:55:09.684Z,9.54
2019-05-15T04:57:40.408Z,9.49
2019-05-15T05:00:12.796Z,9.55
2019-05-15T05:02:44.037Z,9.58
2019-05-15T05:05:15.389Z,9.63
2019-05-15T05:07:49.103Z,9.71
2019-05-15T05:10:19.724Z,9.79
2019-05-15T05:12:51.169Z,10.00
2019-05-15T05:15:22.777Z,10.15
2019-05-15T05:17:53.982Z,10.31
2019-05-15T05:20:25.515Z,10.33
2019-05-15T05:22:58.359Z,10.43
2019-05-15T05:25:29.963Z,10.45
2019-05-15T05:28:01.367Z,10.62
2019-05-15T05:30:32.710Z,10.62
2019-05-15T05:33:04.626Z,10.64
2019-05-15T05:35:38.755Z,10.76
2019-05-15T05:38:10.233Z,10.65
2019-05-15T05:40:42.149Z,10.78
2019-05-15T05:43:13.697Z,10.88
2019-05-15T05:45:45.184Z,10.85
2019-05-15T05:48:18.699Z,10.96
2019-05-15T05:50:50.256Z,11.07
2019-05-15T05:53:21.875Z,10.94
2019-05-15T05:55:53.711Z,10.84
2019-05-15T05:58:25.479Z,10.70
2019-05-15T06:00:58.606Z,10.75
2019-05-15T06:03:31.248Z,10.94
2019-05-15T06:06:02.667Z,10.89
2019-05-15T06:08:34.212Z,10.94
2019-05-15T06:11:05.367Z,11.04
2019-05-15T06:13:38.232Z,11.17
2019-05-15T06:16:10.955Z,11.17
2019-05-15T06:18:42.286Z,11.15
2019-05-15T06:21:13.855Z,11.24
2019-05-15T06:23:48.417Z,11.33
2019-05-15T06:26:19.594Z,11.40
2019-05-15T06:28:50.955Z,11.52
2019-05-15T06:31:22.002Z,11.45
2019-05-15T06:33:53.651Z,11.21
2019-05-15T06:36:25.197Z,11.27
2019-05-15T06:38:58.601Z,11.29
2019-05-15T06:41:29.627Z,11.27
2019-05-15T06:44:00.885Z,11.40
2019-05-15T06:46:31.948Z,11.33
2019-05-15T06:49:03.421Z,11.34
2019-05-15T06:51:34.814Z,11.39
2019-05-15T06:54:08.551Z,11.45
2019-05-15T06:56:39.554Z,11.58
2019-05-15T06:59:10.463Z,11.65
2019-05-15T07:01:41.493Z,12.01
2019-05-15T07:04:12.603Z,12.23
2019-05-15T07:06:43.649Z,12.39
2019-05-15T07:09:15.100Z,12.55
2019-05-15T07:11:48.320Z,12.85
2019-05-15T07:14:19.267Z,12.98
2019-05-15T07:16:50.273Z,13.16
2019-05-15T07:19:21.138Z,13.29
2019-05-15T07:21:52.763Z,13.21
2019-05-15T07:24:23.786Z,13.25
2019-05-15T07:26:54.686Z,12.98
2019-05-15T07:29:26.154Z,12.85
2019-05-15T07:31:58.558Z,12.88
2019-05-15T07:34:29.677Z,12.59
2019-05-15T07:37:00.958Z,12.47
2019-05-15T07:39:32.551Z,12.42
2019-05-15T07:42:03.849Z,12.44
2019-05-15T07:44:35.165Z,12.27
2019-05-15T07:47:08.738Z,12.23
2019-05-15T07:49:39.406Z,12.23
2019-05-15T07:52:10.454Z,12.33
2019-05-15T07:54:41.468Z,12.19
2019-05-15T07:57:12.525Z,12.29
2019-05-15T07:59:43.483Z,12.51
2019-05-15T08:02:14.582Z,12.79
2019-05-15T08:04:48.126Z,12.96
2019-05-15T08:07:18.854Z,13.21
2019-05-15T08:09:49.957Z,13.30
2019-05-15T08:12:21.065Z,13.27
2019-05-15T08:14:52.050Z,13.09
2019-05-15T08:17:23.100Z,13.23
2019-05-15T08:19:54.376Z,13.24
2019-05-15T08:22:28.327Z,13.36
2019-05-15T08:24:59.330Z,13.33
2019-05-15T08:27:30.345Z,13.24
2019-05-15T08:30:01.781Z,13.19
2019-05-15T08:32:33.328Z,12.71
2019-05-15T08:35:05.161Z,12.75
2019-05-15T08:37:38.450Z,12.72
2019-05-15T08:40:10.250Z,12.84
2019-05-15T08:42:42.162Z,13.09
2019-05-15T08:45:13.289Z,12.90
2019-05-15T08:47:44.492Z,13.07
2019-05-15T08:50:18.249Z,13.07
2019-05-15T08:52:49.198Z,13.47
2019-05-15T08:55:20.336Z,13.55
2019-05-15T08:57:55.602Z,13.41
2019-05-15T09:00:24.380Z,13.45
2019-05-15T09:02:58.162Z,13.55
2019-05-15T09:05:30.384Z,14.25
2019-05-15T09:08:02.448Z,14.48
2019-05-15T09:10:38.293Z,14.67
2019-05-15T09:13:09.560Z,14.67
2019-05-15T09:15:40.778Z,14.68
2019-05-15T09:18:15.956Z,15.18
2019-05-15T09:20:44.879Z,16.00
2019-05-15T09:23:19.084Z,16.00
2019-05-15T09:25:49.867Z,15.87
2019-05-15T09:28:20.933Z,15.93
2019-05-15T09:30:52.005Z,15.47
2019-05-15T09:33:24.256Z,15.47
2019-05-15T09:35:55.293Z,15.59
2019-05-15T09:38:28.673Z,15.59
2019-05-15T09:40:59.309Z,15.19
2019-05-15T09:43:30.397Z,15.22
2019-05-15T09:46:01.573Z,15.01
2019-05-15T09:48:32.946Z,15.01
2019-05-15T09:51:04.018Z,14.90
2019-05-15T09:53:35.436Z,15.17
2019-05-15T09:56:08.089Z,15.71
2019-05-15T09:58:39.302Z,15.71
2019-05-15T10:01:10.379Z,15.97
2019-05-15T10:03:44.511Z,16.27
2019-05-15T10:06:15.250Z,16.46
2019-05-15T10:08:49.058Z,16.58
2019-05-15T10:11:20.038Z,16.62
2019-05-15T10:13:51.550Z,16.53
2019-05-15T10:16:22.802Z,16.32
2019-05-15T10:18:54.027Z,16.26
2019-05-15T10:21:29.632Z,16.26
2019-05-15T10:23:59.180Z,15.77
2019-05-15T10:26:30.318Z,15.91
2019-05-15T10:29:01.593Z,15.95
2019-05-15T10:31:32.963Z,16.15
2019-05-15T10:34:04.142Z,15.83
2019-05-15T10:36:35.309Z,15.83
2019-05-15T10:39:08.461Z,15.57
2019-05-15T10:41:39.670Z,15.57
2019-05-15T10:44:10.704Z,15.65
2019-05-15T10:46:41.742Z,15.50
2019-05-15T10:49:12.759Z,15.35
2019-05-15T10:51:45.012Z,15.35
2019-05-15T10:54:15.922Z,15.37
2019-05-15T10:56:47.175Z,15.15
2019-05-15T10:59:18.443Z,15.22
2019-05-15T11:01:49.465Z,15.43
2019-05-15T11:04:20.585Z,15.31
2019-05-15T11:06:51.520Z,15.31
2019-05-15T11:09:22.580Z,15.38
2019-05-15T11:11:53.777Z,15.36
2019-05-15T11:14:24.833Z,15.36
2019-05-15T11:16:58.806Z,15.41
2019-05-15T11:19:35.490Z,15.90
2019-05-15T11:22:01.330Z,15.90
2019-05-15T11:24:32.605Z,15.87
2019-05-15T11:27:03.851Z,15.61
2019-05-15T11:29:34.728Z,15.72
2019-05-15T11:32:05.999Z,15.80
2019-05-15T11:34:38.294Z,15.80
2019-05-15T11:37:09.834Z,15.89
2019-05-15T11:39:46.044Z,15.76
2019-05-15T11:42:14.842Z,15.59
2019-05-15T11:44:48.406Z,15.24
2019-05-15T11:47:19.579Z,14.89
2019-05-15T11:49:50.879Z,14.70
2019-05-15T11:52:22.222Z,14.68
2019-05-15T11:54:53.391Z,14.49
2019-05-15T11:57:37.319Z,14.47
2019-05-15T11:59:59.506Z,14.59
2019-05-15T12:02:29.986Z,14.70
2019-05-15T12:05:02.065Z,14.89
2019-05-15T12:07:33.017Z,14.96
2019-05-15T12:10:04.209Z,14.95
2019-05-15T12:12:35.354Z,14.95
2019-05-15T12:15:08.011Z,15.07
2019-05-15T12:17:39.378Z,15.19
2019-05-15T12:20:10.992Z,15.19
2019-05-15T12:22:42.143Z,15.24
2019-05-15T12:25:13.611Z,15.24
2019-05-15T12:27:44.664Z,15.18
2019-05-15T12:30:16.028Z,15.11
2019-05-15T12:35:20.718Z,14.98
2019-05-15T12:37:51.538Z,14.98
2019-05-15T12:39:23.745Z,15.03
2019-05-15T13:00:46.250Z,14.05
2019-05-15T13:03:18.246Z,14.04
2019-05-15T13:05:49.361Z,13.89
2019-05-15T13:08:20.342Z,13.84
2019-05-15T13:10:51.409Z,13.67
2019-05-15T13:13:22.543Z,13.62
2019-05-15T13:15:53.696Z,13.55
2019-05-15T13:18:24.828Z,13.63
2019-05-15T13:20:56.902Z,13.66
2019-05-15T13:23:28.828Z,13.68
2019-05-15T13:26:00.029Z,13.70
2019-05-15T13:28:31.578Z,13.67
2019-05-15T13:31:02.894Z,13.61
2019-05-15T13:33:34.219Z,13.69
2019-05-15T13:36:05.440Z,13.63
2019-05-15T13:38:38.162Z,13.64
2019-05-15T13:41:09.630Z,13.54
2019-05-15T13:43:40.820Z,13.59
2019-05-15T13:46:12.082Z,13.59
2019-05-15T13:48:43.206Z,13.63
2019-05-15T13:51:14.350Z,13.61
2019-05-15T13:53:45.358Z,13.56
2019-05-15T13:56:18.221Z,13.47
2019-05-15T13:58:49.424Z,13.49
2019-05-15T14:01:20.776Z,13.47
2019-05-15T14:03:53.289Z,13.47
2019-05-15T14:06:24.504Z,13.53
2019-05-15T14:08:57.963Z,13.56
2019-05-15T14:11:31.066Z,13.49
2019-05-15T14:14:01.320Z,13.61
2019-05-15T14:16:32.407Z,13.70
2019-05-15T14:19:04.702Z,13.82
2019-05-15T14:21:37.944Z,13.92
2019-05-15T14:24:09.174Z,13.90
2019-05-15T14:26:40.132Z,13.95
2019-05-15T14:29:11.000Z,14.04
2019-05-15T14:31:43.120Z,14.22
2019-05-15T14:34:14.358Z,14.29
2019-05-15T14:36:45.201Z,14.31
2019-05-15T14:39:16.452Z,14.31
2019-05-15T14:41:49.193Z,14.39
2019-05-15T14:44:21.643Z,14.30
2019-05-15T14:46:52.921Z,14.09
2019-05-15T14:49:24.083Z,14.08
2019-05-15T14:52:07.683Z,14.41
2019-05-15T14:54:28.997Z,14.49
2019-05-15T14:57:00.163Z,14.69
2019-05-15T14:59:31.137Z,14.85
2019-05-15T15:02:03.275Z,15.10
2019-05-15T15:04:34.315Z,15.18
2019-05-15T15:07:05.444Z,15.19
2019-05-15T15:09:36.427Z,15.26
2019-05-15T15:12:08.267Z,15.26
2019-05-15T15:14:40.214Z,15.18
2019-05-15T15:17:11.089Z,15.02
2019-05-15T15:19:42.208Z,14.82
2019-05-15T15:22:13.461Z,14.82
2019-05-15T15:24:44.571Z,15.10
2019-05-15T15:27:15.938Z,15.10
2019-05-15T15:29:48.309Z,15.24
2019-05-15T15:32:19.724Z,15.38
2019-05-15T15:34:50.741Z,15.75
2019-05-15T15:37:22.277Z,15.75
2019-05-15T15:39:53.666Z,15.82
2019-05-15T15:42:24.963Z,15.82
2019-05-15T15:44:58.082Z,15.71
2019-05-15T15:47:29.127Z,15.81
2019-05-15T15:50:00.328Z,15.89
2019-05-15T15:52:31.713Z,15.89
2019-05-15T15:55:02.850Z,15.87
2019-05-15T15:57:34.291Z,15.98
2019-05-15T16:00:05.688Z,15.91
2019-05-15T16:02:40.653Z,15.60
2019-05-15T16:05:10.531Z,15.60
2019-05-15T16:07:43.535Z,15.59
2019-05-15T16:10:15.173Z,15.50
2019-05-15T16:12:46.453Z,15.50
2019-05-15T16:15:18.202Z,15.48
2019-05-15T16:17:49.641Z,15.48
2019-05-15T16:20:20.769Z,15.47
2019-05-15T16:22:52.465Z,15.41
2019-05-15T16:25:23.652Z,15.51
2019-05-15T16:27:55.137Z,15.45
2019-05-15T16:30:28.183Z,15.51
2019-05-15T16:32:59.748Z,15.53
2019-05-15T16:35:31.154Z,15.33
2019-05-15T16:38:02.200Z,15.31
2019-05-15T16:40:33.273Z,15.26
2019-05-15T16:43:04.334Z,15.26
2019-05-15T16:45:38.574Z,15.22
2019-05-15T16:48:09.470Z,15.24
2019-05-15T16:50:40.669Z,15.24
2019-05-15T16:53:11.948Z,15.32
2019-05-15T16:55:43.241Z,15.22
2019-05-15T16:58:14.874Z,15.22
2019-05-15T17:00:45.962Z,15.23
2019-05-15T17:03:18.449Z,15.05
2019-05-15T17:05:49.820Z,15.00
2019-05-15T17:08:22.066Z,14.95
2019-05-15T17:10:53.470Z,14.75
2019-05-15T17:13:24.641Z,14.64
2019-05-15T17:15:58.266Z,14.52
2019-05-15T17:18:29.403Z,14.38
2019-05-15T17:21:00.796Z,14.35
2019-05-15T17:23:31.984Z,14.32
2019-05-15T17:26:03.286Z,14.30
2019-05-15T17:28:34.425Z,14.22
2019-05-15T17:31:05.456Z,14.15
2019-05-15T17:33:38.084Z,14.12
2019-05-15T17:36:09.526Z,13.97
2019-05-15T17:38:40.841Z,13.84
2019-05-15T17:41:12.665Z,13.93
2019-05-15T17:43:43.651Z,13.99
2019-05-15T17:46:14.990Z,13.71
2019-05-15T17:48:54.062Z,13.92
2019-05-15T17:51:19.594Z,13.78
2019-05-15T17:53:51.107Z,13.68
2019-05-15T17:56:21.977Z,13.67
2019-05-15T17:58:54.237Z,13.60
2019-05-15T18:01:28.048Z,13.60
2019-05-15T18:03:59.425Z,13.62
2019-05-15T18:06:30.649Z,13.63
2019-05-15T18:09:01.523Z,13.53
2019-05-15T18:11:34.087Z,13.59
2019-05-15T18:14:05.329Z,13.65
2019-05-15T18:16:38.140Z,13.65
2019-05-15T18:19:09.100Z,13.59
2019-05-15T18:21:41.596Z,13.45
2019-05-15T18:24:12.563Z,13.27
2019-05-15T18:26:43.409Z,13.30
2019-05-15T18:29:14.724Z,13.21
2019-05-15T18:31:47.899Z,13.23
2019-05-15T18:34:19.098Z,13.27
2019-05-15T18:36:50.533Z,13.32
2019-05-15T18:39:21.642Z,13.30
2019-05-15T18:41:52.931Z,13.27
2019-05-15T18:44:24.136Z,13.34
2019-05-15T18:46:55.046Z,13.30
2019-05-15T18:49:28.378Z,13.15
2019-05-15T18:51:59.085Z,13.17
2019-05-15T18:54:30.278Z,13.25
2019-05-15T18:57:01.299Z,13.32
2019-05-15T18:59:32.644Z,13.35
2019-05-15T19:02:04.093Z,13.44
2019-05-15T19:04:34.948Z,13.36
2019-05-15T19:07:08.701Z,13.44
2019-05-15T19:09:39.238Z,13.43
2019-05-15T19:12:10.705Z,13.48
2019-05-15T19:14:41.813Z,13.49
2019-05-15T19:17:12.869Z,13.51
2019-05-15T19:19:43.975Z,13.51
2019-05-15T19:22:15.188Z,13.30
2019-05-15T19:24:46.592Z,13.32
2019-05-15T19:27:19.349Z,13.29
2019-05-15T19:29:50.453Z,13.31
2019-05-15T19:32:21.627Z,13.15
2019-05-15T19:34:53.046Z,13.23
2019-05-15T19:37:24.225Z,13.21
2019-05-15T19:39:55.339Z,13.11
2019-05-15T19:42:28.557Z,13.05
2019-05-15T19:44:59.401Z,13.06
2019-05-15T19:47:31.722Z,13.08
2019-05-15T19:50:03.074Z,13.06
2019-05-15T19:52:35.575Z,13.02
2019-05-15T19:55:08.875Z,12.93
2019-05-15T19:57:40.278Z,12.86
2019-05-15T20:00:12.679Z,12.94
2019-05-15T20:02:44.396Z,13.00
2019-05-15T20:05:18.179Z,13.05
2019-05-15T20:07:49.304Z,13.06
2019-05-15T20:10:20.603Z,13.02
2019-05-15T20:12:51.744Z,12.97
2019-05-15T20:15:22.948Z,12.84
2019-05-15T20:17:54.217Z,12.73
2019-05-15T20:20:28.029Z,12.76
2019-05-15T20:23:00.131Z,12.65
2019-05-15T20:25:31.561Z,12.59
2019-05-15T20:28:03.021Z,12.49
2019-05-15T20:30:34.825Z,12.49
2019-05-15T20:33:08.894Z,12.46
2019-05-15T20:35:40.234Z,12.45
2019-05-15T20:38:11.453Z,12.44
2019-05-15T20:40:43.704Z,12.35
2019-05-15T20:43:14.930Z,12.36
2019-05-15T20:45:48.291Z,12.34
2019-05-15T20:48:18.843Z,12.30
2019-05-15T20:50:50.254Z,12.23
2019-05-15T20:53:21.452Z,12.21
2019-05-15T20:55:52.704Z,12.28
2019-05-15T20:58:23.711Z,12.20
2019-05-15T21:00:54.757Z,12.17
2019-05-15T21:03:25.920Z,12.12
2019-05-15T21:05:57.747Z,12.15
2019-05-15T21:08:30.117Z,12.17
2019-05-15T21:11:01.478Z,12.20
2019-05-15T21:13:32.510Z,12.17
2019-05-15T21:16:03.504Z,12.11
2019-05-15T21:18:34.325Z,12.13
2019-05-15T21:21:10.199Z,12.18
2019-05-15T21:23:38.799Z,12.10
2019-05-15T21:26:11.098Z,12.05
2019-05-15T21:28:42.428Z,12.01
2019-05-15T21:31:13.868Z,12.04
2019-05-15T21:33:45.102Z,11.99
2019-05-15T21:36:16.299Z,12.06
2019-05-15T21:38:48.035Z,11.96
2019-05-15T21:41:19.448Z,11.94
2019-05-15T21:43:50.965Z,11.84
2019-05-15T21:46:22.827Z,11.93
2019-05-15T21:48:54.936Z,11.91
2019-05-15T21:51:28.114Z,11.95
2019-05-15T21:54:01.243Z,11.93
2019-05-15T21:56:32.076Z,11.78
2019-05-15T21:59:03.479Z,11.64
2019-05-15T22:01:34.915Z,11.60
2019-05-15T22:04:06.519Z,11.51
2019-05-15T22:06:38.463Z,11.54
2019-05-15T22:09:12.252Z,11.51
2019-05-15T22:11:43.774Z,11.51
2019-05-15T22:14:15.159Z,11.46
2019-05-15T22:16:46.831Z,11.33
2019-05-15T22:19:20.439Z,11.33
2019-05-15T22:21:51.392Z,11.21
2019-05-15T22:24:22.944Z,11.21
2019-05-15T22:26:54.574Z,11.21
2019-05-15T22:29:28.633Z,11.13
2019-05-15T22:31:59.629Z,11.12
2019-05-15T22:34:30.932Z,11.17
2019-05-15T22:37:02.182Z,11.17
2019-05-15T22:39:33.431Z,11.05
2019-05-15T22:42:04.843Z,11.18
2019-05-15T22:44:38.502Z,11.09
2019-05-15T22:47:10.170Z,11.14
2019-05-15T22:49:41.597Z,11.23
2019-05-15T22:52:13.172Z,11.23
2019-05-15T22:54:44.808Z,11.24
2019-05-15T22:57:16.463Z,11.26
2019-05-15T22:59:48.767Z,11.20
2019-05-15T23:02:19.980Z,11.30
2019-05-15T23:04:51.678Z,11.32
2019-05-15T23:07:22.957Z,11.33
2019-05-15T23:09:54.559Z,11.26
2019-05-15T23:12:26.036Z,11.25
2019-05-15T23:14:57.936Z,11.21
2019-05-15T23:17:29.704Z,11.20
2019-05-15T23:20:01.360Z,11.22
2019-05-15T23:22:33.084Z,11.10
2019-05-15T23:25:05.025Z,11.12
2019-05-15T23:27:38.170Z,11.06
2019-05-15T23:30:10.170Z,11.04
2019-05-15T23:32:41.653Z,11.04
2019-05-15T23:35:13.255Z,10.96
2019-05-15T23:37:44.747Z,10.97
2019-05-15T23:40:17.989Z,10.92
2019-05-15T23:42:50.166Z,10.97
2019-05-15T23:45:21.826Z,11.02
2019-05-15T23:47:53.359Z,10.97
2019-05-15T23:50:24.947Z,10.95
2019-05-15T23:52:58.395Z,11.02
2019-05-15T23:55:29.706Z,11.07
2019-05-15T23:58:01.545Z,11.05
